sensor_id;sensor_type;location;lat;lon;timestamp;temperature;humidity
10030;DHT22;5055;52.054;8.524;2023-12-29T00:02:24;10.60;97.00
10030;DHT22;5055;52.054;8.524;2023-12-29T00:04:52;10.60;97.00
10030;DHT22;5055;52.054;8.524;2023-12-29T00:07:20;10.60;97.00
10030;DHT22;5055;52.054;8.524;2023-12-29T00:09:48;10.60;97.00
10030;DHT22;5055;52.054;8.524;2023-12-29T00:12:17;10.60;97.00
10030;DHT22;5055;52.054;8.524;2023-12-29T00:14:45;10.60;97.00
10030;DHT22;5055;52.054;8.524;2023-12-29T00:17:13;10.70;97.00
10030;DHT22;5055;52.054;8.524;2023-12-29T00:19:42;10.70;97.00
10030;DHT22;5055;52.054;8.524;2023-12-29T00:22:11;10.70;97.00
10030;DHT22;5055;52.054;8.524;2023-12-29T00:24:39;10.80;97.00
10030;DHT22;5055;52.054;8.524;2023-12-29T00:27:07;10.80;97.00
10030;DHT22;5055;52.054;8.524;2023-12-29T00:29:35;10.80;97.00
10030;DHT22;5055;52.054;8.524;2023-12-29T00:32:04;10.80;97.00
10030;DHT22;5055;52.054;8.524;2023-12-29T00:34:32;10.80;97.00
10030;DHT22;5055;52.054;8.524;2023-12-29T00:37:03;10.80;97.00
10030;DHT22;5055;52.054;8.524;2023-12-29T00:39:31;10.80;97.00
10030;DHT22;5055;52.054;8.524;2023-12-29T00:42:06;10.80;97.00
10030;DHT22;5055;52.054;8.524;2023-12-29T00:44:34;10.80;97.00
10030;DHT22;5055;52.054;8.524;2023-12-29T00:47:03;10.80;97.00
10030;DHT22;5055;52.054;8.524;2023-12-29T00:49:31;10.70;97.00
10030;DHT22;5055;52.054;8.524;2023-12-29T00:51:59;10.70;97.00
10030;DHT22;5055;52.054;8.524;2023-12-29T00:54:31;10.60;97.00
10030;DHT22;5055;52.054;8.524;2023-12-29T00:56:59;10.50;97.00
10030;DHT22;5055;52.054;8.524;2023-12-29T00:59:27;10.30;97.00
10030;DHT22;5055;52.054;8.524;2023-12-29T01:01:55;10.20;97.00
10030;DHT22;5055;52.054;8.524;2023-12-29T01:04:23;10.20;97.00
10030;DHT22;5055;52.054;8.524;2023-12-29T01:06:52;10.20;97.00
10030;DHT22;5055;52.054;8.524;2023-12-29T01:09:21;10.20;97.00
10030;DHT22;5055;52.054;8.524;2023-12-29T01:11:50;10.20;97.00
10030;DHT22;5055;52.054;8.524;2023-12-29T01:14:18;10.20;97.00
10030;DHT22;5055;52.054;8.524;2023-12-29T01:16:46;10.20;97.00
10030;DHT22;5055;52.054;8.524;2023-12-29T01:19:14;10.30;97.00
10030;DHT22;5055;52.054;8.524;2023-12-29T01:21:43;10.30;97.00
10030;DHT22;5055;52.054;8.524;2023-12-29T01:24:11;10.30;97.00
10030;DHT22;5055;52.054;8.524;2023-12-29T01:26:42;10.30;97.00
10030;DHT22;5055;52.054;8.524;2023-12-29T01:29:12;10.30;97.00
10030;DHT22;5055;52.054;8.524;2023-12-29T01:31:40;10.30;97.00
10030;DHT22;5055;52.054;8.524;2023-12-29T01:34:09;10.40;97.00
10030;DHT22;5055;52.054;8.524;2023-12-29T01:36:37;10.40;97.00
10030;DHT22;5055;52.054;8.524;2023-12-29T01:39:05;10.40;97.00
10030;DHT22;5055;52.054;8.524;2023-12-29T01:41:33;10.50;97.00
10030;DHT22;5055;52.054;8.524;2023-12-29T01:44:29;10.50;97.00
10030;DHT22;5055;52.054;8.524;2023-12-29T01:46:59;10.60;97.00
10030;DHT22;5055;52.054;8.524;2023-12-29T01:49:29;10.60;97.00
10030;DHT22;5055;52.054;8.524;2023-12-29T01:51:58;10.70;97.00
10030;DHT22;5055;52.054;8.524;2023-12-29T01:54:30;10.70;97.00
10030;DHT22;5055;52.054;8.524;2023-12-29T01:57:00;10.70;97.00
10030;DHT22;5055;52.054;8.524;2023-12-29T01:59:31;10.80;97.00
10030;DHT22;5055;52.054;8.524;2023-12-29T02:02:00;10.80;97.00
10030;DHT22;5055;52.054;8.524;2023-12-29T02:04:29;10.80;97.00
10030;DHT22;5055;52.054;8.524;2023-12-29T02:06:58;10.70;97.00
10030;DHT22;5055;52.054;8.524;2023-12-29T02:09:26;10.80;97.00
10030;DHT22;5055;52.054;8.524;2023-12-29T02:11:55;10.80;97.00
10030;DHT22;5055;52.054;8.524;2023-12-29T02:14:23;10.80;97.00
10030;DHT22;5055;52.054;8.524;2023-12-29T02:17:00;10.80;97.00
10030;DHT22;5055;52.054;8.524;2023-12-29T02:19:40;10.80;97.00
10030;DHT22;5055;52.054;8.524;2023-12-29T02:22:11;10.80;97.00
10030;DHT22;5055;52.054;8.524;2023-12-29T02:24:39;10.80;97.00
10030;DHT22;5055;52.054;8.524;2023-12-29T02:27:13;10.90;97.00
10030;DHT22;5055;52.054;8.524;2023-12-29T02:30:01;10.80;97.00
10030;DHT22;5055;52.054;8.524;2023-12-29T02:32:32;10.80;97.00
10030;DHT22;5055;52.054;8.524;2023-12-29T02:35:01;10.90;97.00
10030;DHT22;5055;52.054;8.524;2023-12-29T02:37:31;10.90;97.00
10030;DHT22;5055;52.054;8.524;2023-12-29T02:39:59;10.90;97.00
10030;DHT22;5055;52.054;8.524;2023-12-29T02:42:29;10.90;97.00
10030;DHT22;5055;52.054;8.524;2023-12-29T02:44:57;10.80;97.00
10030;DHT22;5055;52.054;8.524;2023-12-29T02:47:25;10.70;97.00
10030;DHT22;5055;52.054;8.524;2023-12-29T02:49:54;10.50;97.00
10030;DHT22;5055;52.054;8.524;2023-12-29T02:52:22;10.40;97.00
10030;DHT22;5055;52.054;8.524;2023-12-29T02:54:50;10.20;97.00
10030;DHT22;5055;52.054;8.524;2023-12-29T02:57:18;10.10;97.00
10030;DHT22;5055;52.054;8.524;2023-12-29T02:59:48;9.90;97.00
10030;DHT22;5055;52.054;8.524;2023-12-29T03:02:16;9.80;97.00
10030;DHT22;5055;52.054;8.524;2023-12-29T03:04:44;9.70;97.00
10030;DHT22;5055;52.054;8.524;2023-12-29T03:07:12;9.60;97.00
10030;DHT22;5055;52.054;8.524;2023-12-29T03:09:40;9.50;97.00
10030;DHT22;5055;52.054;8.524;2023-12-29T03:12:09;9.50;97.00
10030;DHT22;5055;52.054;8.524;2023-12-29T03:14:37;9.40;97.00
10030;DHT22;5055;52.054;8.524;2023-12-29T03:17:06;9.40;97.00
10030;DHT22;5055;52.054;8.524;2023-12-29T03:19:35;9.40;97.00
10030;DHT22;5055;52.054;8.524;2023-12-29T03:22:03;9.40;97.00
10030;DHT22;5055;52.054;8.524;2023-12-29T03:24:31;9.40;97.00
10030;DHT22;5055;52.054;8.524;2023-12-29T03:26:59;9.40;97.00
10030;DHT22;5055;52.054;8.524;2023-12-29T03:29:27;9.40;97.00
10030;DHT22;5055;52.054;8.524;2023-12-29T03:31:55;9.40;97.00
10030;DHT22;5055;52.054;8.524;2023-12-29T03:34:25;9.40;97.00
10030;DHT22;5055;52.054;8.524;2023-12-29T03:36:53;9.40;97.00
10030;DHT22;5055;52.054;8.524;2023-12-29T03:39:21;9.40;97.00
10030;DHT22;5055;52.054;8.524;2023-12-29T03:41:50;9.40;97.00
10030;DHT22;5055;52.054;8.524;2023-12-29T03:44:18;9.50;97.00
10030;DHT22;5055;52.054;8.524;2023-12-29T03:46:46;9.40;97.00
10030;DHT22;5055;52.054;8.524;2023-12-29T03:49:16;9.40;97.00
10030;DHT22;5055;52.054;8.524;2023-12-29T03:51:46;9.40;97.00
10030;DHT22;5055;52.054;8.524;2023-12-29T03:54:14;9.40;97.00
10030;DHT22;5055;52.054;8.524;2023-12-29T03:56:44;9.40;97.00
10030;DHT22;5055;52.054;8.524;2023-12-29T03:59:12;9.40;97.00
10030;DHT22;5055;52.054;8.524;2023-12-29T04:01:41;9.40;97.00
10030;DHT22;5055;52.054;8.524;2023-12-29T04:04:10;9.40;97.00
10030;DHT22;5055;52.054;8.524;2023-12-29T04:06:38;9.40;97.00
10030;DHT22;5055;52.054;8.524;2023-12-29T04:09:07;9.40;97.00
10030;DHT22;5055;52.054;8.524;2023-12-29T04:11:35;9.40;97.00
10030;DHT22;5055;52.054;8.524;2023-12-29T04:14:03;9.40;97.00
10030;DHT22;5055;52.054;8.524;2023-12-29T04:16:32;9.30;97.00
10030;DHT22;5055;52.054;8.524;2023-12-29T04:19:00;9.30;97.00
10030;DHT22;5055;52.054;8.524;2023-12-29T04:21:28;9.30;97.00
10030;DHT22;5055;52.054;8.524;2023-12-29T04:23:56;9.20;97.00
10030;DHT22;5055;52.054;8.524;2023-12-29T04:26:25;9.10;97.00
10030;DHT22;5055;52.054;8.524;2023-12-29T04:28:54;9.10;97.00
10030;DHT22;5055;52.054;8.524;2023-12-29T04:31:22;9.00;97.00
10030;DHT22;5055;52.054;8.524;2023-12-29T04:33:50;9.00;97.00
10030;DHT22;5055;52.054;8.524;2023-12-29T04:36:18;9.00;97.00
10030;DHT22;5055;52.054;8.524;2023-12-29T04:38:46;9.00;97.00
10030;DHT22;5055;52.054;8.524;2023-12-29T04:41:14;9.00;97.00
10030;DHT22;5055;52.054;8.524;2023-12-29T04:43:44;9.00;97.00
10030;DHT22;5055;52.054;8.524;2023-12-29T04:46:12;9.00;97.00
10030;DHT22;5055;52.054;8.524;2023-12-29T04:48:40;9.00;97.00
10030;DHT22;5055;52.054;8.524;2023-12-29T04:51:08;9.00;97.00
10030;DHT22;5055;52.054;8.524;2023-12-29T04:53:36;9.00;97.00
10030;DHT22;5055;52.054;8.524;2023-12-29T04:56:05;9.10;97.00
10030;DHT22;5055;52.054;8.524;2023-12-29T04:58:33;9.10;97.00
10030;DHT22;5055;52.054;8.524;2023-12-29T05:01:03;9.10;97.00
10030;DHT22;5055;52.054;8.524;2023-12-29T05:03:31;9.20;97.00
10030;DHT22;5055;52.054;8.524;2023-12-29T05:06:00;9.20;97.00
10030;DHT22;5055;52.054;8.524;2023-12-29T05:08:28;9.30;97.00
10030;DHT22;5055;52.054;8.524;2023-12-29T05:10:56;9.30;97.00
10030;DHT22;5055;52.054;8.524;2023-12-29T05:13:24;9.30;97.00
10030;DHT22;5055;52.054;8.524;2023-12-29T05:15:52;9.40;97.00
10030;DHT22;5055;52.054;8.524;2023-12-29T05:18:22;9.40;97.00
10030;DHT22;5055;52.054;8.524;2023-12-29T05:20:50;9.40;97.00
10030;DHT22;5055;52.054;8.524;2023-12-29T05:23:18;9.40;97.00
10030;DHT22;5055;52.054;8.524;2023-12-29T05:25:47;9.50;97.00
10030;DHT22;5055;52.054;8.524;2023-12-29T05:28:15;9.60;97.00
10030;DHT22;5055;52.054;8.524;2023-12-29T05:30:43;9.60;97.00
10030;DHT22;5055;52.054;8.524;2023-12-29T05:33:12;9.60;97.00
10030;DHT22;5055;52.054;8.524;2023-12-29T05:35:40;9.70;97.00
10030;DHT22;5055;52.054;8.524;2023-12-29T05:38:09;9.70;97.00
10030;DHT22;5055;52.054;8.524;2023-12-29T05:40:37;9.70;97.00
10030;DHT22;5055;52.054;8.524;2023-12-29T05:43:05;9.70;97.00
10030;DHT22;5055;52.054;8.524;2023-12-29T05:45:33;9.80;97.00
10030;DHT22;5055;52.054;8.524;2023-12-29T05:48:02;9.80;97.00
10030;DHT22;5055;52.054;8.524;2023-12-29T05:50:30;9.80;97.00
10030;DHT22;5055;52.054;8.524;2023-12-29T05:53:00;9.90;97.00
10030;DHT22;5055;52.054;8.524;2023-12-29T05:55:28;9.90;97.00
10030;DHT22;5055;52.054;8.524;2023-12-29T05:57:56;10.00;97.00
10030;DHT22;5055;52.054;8.524;2023-12-29T06:00:25;10.00;97.00
10030;DHT22;5055;52.054;8.524;2023-12-29T06:02:53;10.00;97.00
10030;DHT22;5055;52.054;8.524;2023-12-29T06:05:21;10.00;97.00
10030;DHT22;5055;52.054;8.524;2023-12-29T06:07:49;10.00;97.00
10030;DHT22;5055;52.054;8.524;2023-12-29T06:10:19;10.10;97.00
10030;DHT22;5055;52.054;8.524;2023-12-29T06:12:47;10.10;97.00
10030;DHT22;5055;52.054;8.524;2023-12-29T06:15:14;10.10;97.00
10030;DHT22;5055;52.054;8.524;2023-12-29T06:17:43;10.10;97.00
10030;DHT22;5055;52.054;8.524;2023-12-29T06:20:11;10.10;97.00
10030;DHT22;5055;52.054;8.524;2023-12-29T06:22:40;10.20;97.00
10030;DHT22;5055;52.054;8.524;2023-12-29T06:25:09;10.20;97.00
10030;DHT22;5055;52.054;8.524;2023-12-29T06:27:40;10.20;97.00
10030;DHT22;5055;52.054;8.524;2023-12-29T06:30:09;10.20;97.00
10030;DHT22;5055;52.054;8.524;2023-12-29T06:32:38;10.20;97.00
10030;DHT22;5055;52.054;8.524;2023-12-29T06:35:07;10.20;97.00
10030;DHT22;5055;52.054;8.524;2023-12-29T06:37:37;10.20;97.00
10030;DHT22;5055;52.054;8.524;2023-12-29T06:40:07;10.20;97.00
10030;DHT22;5055;52.054;8.524;2023-12-29T06:42:35;10.30;97.00
10030;DHT22;5055;52.054;8.524;2023-12-29T06:45:06;10.20;97.00
10030;DHT22;5055;52.054;8.524;2023-12-29T06:47:36;10.30;97.00
10030;DHT22;5055;52.054;8.524;2023-12-29T06:50:05;10.30;97.00
10030;DHT22;5055;52.054;8.524;2023-12-29T06:52:34;10.30;97.00
10030;DHT22;5055;52.054;8.524;2023-12-29T06:55:02;10.30;97.00
10030;DHT22;5055;52.054;8.524;2023-12-29T06:57:31;10.30;97.00
10030;DHT22;5055;52.054;8.524;2023-12-29T06:59:59;10.20;97.00
10030;DHT22;5055;52.054;8.524;2023-12-29T07:02:28;10.30;97.00
10030;DHT22;5055;52.054;8.524;2023-12-29T07:04:57;10.30;97.00
10030;DHT22;5055;52.054;8.524;2023-12-29T07:07:26;10.30;97.00
10030;DHT22;5055;52.054;8.524;2023-12-29T07:09:54;10.30;97.00
10030;DHT22;5055;52.054;8.524;2023-12-29T07:12:22;10.30;97.00
10030;DHT22;5055;52.054;8.524;2023-12-29T07:14:51;10.30;97.00
10030;DHT22;5055;52.054;8.524;2023-12-29T07:17:20;10.30;97.00
10030;DHT22;5055;52.054;8.524;2023-12-29T07:19:50;10.30;97.00
10030;DHT22;5055;52.054;8.524;2023-12-29T07:22:18;10.30;97.00
10030;DHT22;5055;52.054;8.524;2023-12-29T07:24:47;10.30;97.00
10030;DHT22;5055;52.054;8.524;2023-12-29T07:27:15;10.30;97.00
10030;DHT22;5055;52.054;8.524;2023-12-29T07:29:43;10.40;97.00
10030;DHT22;5055;52.054;8.524;2023-12-29T07:32:11;10.40;97.00
10030;DHT22;5055;52.054;8.524;2023-12-29T07:34:39;10.50;97.00
10030;DHT22;5055;52.054;8.524;2023-12-29T07:37:10;10.40;97.00
10030;DHT22;5055;52.054;8.524;2023-12-29T07:39:38;10.40;97.00
10030;DHT22;5055;52.054;8.524;2023-12-29T07:42:07;10.40;97.00
10030;DHT22;5055;52.054;8.524;2023-12-29T07:44:35;10.50;97.00
10030;DHT22;5055;52.054;8.524;2023-12-29T07:47:03;10.50;97.00
10030;DHT22;5055;52.054;8.524;2023-12-29T07:49:31;10.50;97.00
10030;DHT22;5055;52.054;8.524;2023-12-29T07:52:00;10.50;97.00
10030;DHT22;5055;52.054;8.524;2023-12-29T07:54:29;10.50;97.00
10030;DHT22;5055;52.054;8.524;2023-12-29T07:56:58;10.50;97.00
10030;DHT22;5055;52.054;8.524;2023-12-29T07:59:26;10.50;97.00
10030;DHT22;5055;52.054;8.524;2023-12-29T08:01:54;10.50;97.00
10030;DHT22;5055;52.054;8.524;2023-12-29T08:04:24;10.50;97.00
10030;DHT22;5055;52.054;8.524;2023-12-29T08:06:52;10.50;97.00
10030;DHT22;5055;52.054;8.524;2023-12-29T08:09:21;10.50;97.00
10030;DHT22;5055;52.054;8.524;2023-12-29T08:11:50;10.50;97.00
10030;DHT22;5055;52.054;8.524;2023-12-29T08:14:18;10.50;97.00
10030;DHT22;5055;52.054;8.524;2023-12-29T08:16:46;10.40;97.00
10030;DHT22;5055;52.054;8.524;2023-12-29T08:19:14;10.40;97.00
10030;DHT22;5055;52.054;8.524;2023-12-29T08:21:43;10.40;97.00
10030;DHT22;5055;52.054;8.524;2023-12-29T08:24:11;10.40;97.00
10030;DHT22;5055;52.054;8.524;2023-12-29T08:26:44;10.30;97.00
10030;DHT22;5055;52.054;8.524;2023-12-29T08:29:14;10.30;97.00
10030;DHT22;5055;52.054;8.524;2023-12-29T08:31:42;10.40;97.00
10030;DHT22;5055;52.054;8.524;2023-12-29T08:34:11;10.40;97.00
10030;DHT22;5055;52.054;8.524;2023-12-29T08:36:40;10.40;97.00
10030;DHT22;5055;52.054;8.524;2023-12-29T08:39:08;10.40;97.00
10030;DHT22;5055;52.054;8.524;2023-12-29T08:41:38;10.30;97.00
10030;DHT22;5055;52.054;8.524;2023-12-29T08:44:07;10.20;97.00
10030;DHT22;5055;52.054;8.524;2023-12-29T08:46:36;10.20;97.00
10030;DHT22;5055;52.054;8.524;2023-12-29T08:49:04;10.10;97.00
10030;DHT22;5055;52.054;8.524;2023-12-29T08:51:32;10.00;97.00
10030;DHT22;5055;52.054;8.524;2023-12-29T08:54:01;9.80;97.00
10030;DHT22;5055;52.054;8.524;2023-12-29T08:56:29;9.70;97.00
10030;DHT22;5055;52.054;8.524;2023-12-29T08:58:57;9.50;97.00
10030;DHT22;5055;52.054;8.524;2023-12-29T09:01:25;9.40;97.00
10030;DHT22;5055;52.054;8.524;2023-12-29T09:03:55;9.30;97.00
10030;DHT22;5055;52.054;8.524;2023-12-29T09:06:23;9.20;97.00
10030;DHT22;5055;52.054;8.524;2023-12-29T09:08:51;9.10;97.00
10030;DHT22;5055;52.054;8.524;2023-12-29T09:11:19;9.10;97.00
10030;DHT22;5055;52.054;8.524;2023-12-29T09:13:47;9.10;97.00
10030;DHT22;5055;52.054;8.524;2023-12-29T09:16:16;9.10;97.00
10030;DHT22;5055;52.054;8.524;2023-12-29T09:18:44;9.10;97.00
10030;DHT22;5055;52.054;8.524;2023-12-29T09:21:14;9.10;97.00
10030;DHT22;5055;52.054;8.524;2023-12-29T09:23:42;9.10;97.00
10030;DHT22;5055;52.054;8.524;2023-12-29T09:26:12;9.10;97.00
10030;DHT22;5055;52.054;8.524;2023-12-29T09:28:42;9.10;97.00
10030;DHT22;5055;52.054;8.524;2023-12-29T09:31:10;9.10;97.00
10030;DHT22;5055;52.054;8.524;2023-12-29T09:33:39;9.10;97.00
10030;DHT22;5055;52.054;8.524;2023-12-29T09:36:07;9.10;97.00
10030;DHT22;5055;52.054;8.524;2023-12-29T09:38:36;9.10;97.00
10030;DHT22;5055;52.054;8.524;2023-12-29T09:41:09;9.10;97.00
10030;DHT22;5055;52.054;8.524;2023-12-29T09:43:39;9.10;97.00
10030;DHT22;5055;52.054;8.524;2023-12-29T09:46:10;9.10;97.00
10030;DHT22;5055;52.054;8.524;2023-12-29T09:48:41;9.10;97.00
10030;DHT22;5055;52.054;8.524;2023-12-29T09:51:11;9.10;97.00
10030;DHT22;5055;52.054;8.524;2023-12-29T09:53:41;9.10;97.00
10030;DHT22;5055;52.054;8.524;2023-12-29T09:56:10;9.10;97.00
10030;DHT22;5055;52.054;8.524;2023-12-29T09:58:38;9.10;97.00
10030;DHT22;5055;52.054;8.524;2023-12-29T10:01:06;9.10;97.00
10030;DHT22;5055;52.054;8.524;2023-12-29T10:03:34;9.10;97.00
10030;DHT22;5055;52.054;8.524;2023-12-29T10:06:06;9.10;97.00
10030;DHT22;5055;52.054;8.524;2023-12-29T10:08:37;9.20;97.00
10030;DHT22;5055;52.054;8.524;2023-12-29T10:11:08;9.20;97.00
10030;DHT22;5055;52.054;8.524;2023-12-29T10:13:38;9.20;97.00
10030;DHT22;5055;52.054;8.524;2023-12-29T10:16:12;9.20;97.00
10030;DHT22;5055;52.054;8.524;2023-12-29T10:18:45;9.30;97.00
10030;DHT22;5055;52.054;8.524;2023-12-29T10:21:23;9.30;97.00
10030;DHT22;5055;52.054;8.524;2023-12-29T10:23:58;9.30;97.00
10030;DHT22;5055;52.054;8.524;2023-12-29T10:26:34;9.30;97.00
10030;DHT22;5055;52.054;8.524;2023-12-29T10:29:03;9.40;97.00
10030;DHT22;5055;52.054;8.524;2023-12-29T10:31:31;9.40;97.00
10030;DHT22;5055;52.054;8.524;2023-12-29T10:34:17;9.50;97.00
10030;DHT22;5055;52.054;8.524;2023-12-29T10:36:47;9.50;97.00
10030;DHT22;5055;52.054;8.524;2023-12-29T10:39:15;9.60;97.00
10030;DHT22;5055;52.054;8.524;2023-12-29T10:41:45;9.70;97.00
10030;DHT22;5055;52.054;8.524;2023-12-29T10:44:13;9.70;97.00
10030;DHT22;5055;52.054;8.524;2023-12-29T10:46:41;9.80;97.00
10030;DHT22;5055;52.054;8.524;2023-12-29T10:49:10;9.80;97.00
10030;DHT22;5055;52.054;8.524;2023-12-29T10:51:39;9.90;97.00
10030;DHT22;5055;52.054;8.524;2023-12-29T10:54:08;9.90;97.00
10030;DHT22;5055;52.054;8.524;2023-12-29T10:57:00;10.00;97.00
10030;DHT22;5055;52.054;8.524;2023-12-29T10:59:28;10.00;97.00
10030;DHT22;5055;52.054;8.524;2023-12-29T11:01:56;10.00;97.00
10030;DHT22;5055;52.054;8.524;2023-12-29T11:04:24;10.10;97.00
10030;DHT22;5055;52.054;8.524;2023-12-29T11:06:52;10.10;97.00
10030;DHT22;5055;52.054;8.524;2023-12-29T11:09:27;10.10;97.00
10030;DHT22;5055;52.054;8.524;2023-12-29T11:11:58;10.10;97.00
10030;DHT22;5055;52.054;8.524;2023-12-29T11:14:27;10.20;97.00
10030;DHT22;5055;52.054;8.524;2023-12-29T11:16:56;10.20;97.00
10030;DHT22;5055;52.054;8.524;2023-12-29T11:19:25;10.20;97.00
10030;DHT22;5055;52.054;8.524;2023-12-29T11:21:56;10.20;97.00
10030;DHT22;5055;52.054;8.524;2023-12-29T11:24:24;10.20;97.00
10030;DHT22;5055;52.054;8.524;2023-12-29T11:27:06;10.20;97.00
10030;DHT22;5055;52.054;8.524;2023-12-29T11:29:35;10.20;97.00
10030;DHT22;5055;52.054;8.524;2023-12-29T11:32:08;10.20;97.00
10030;DHT22;5055;52.054;8.524;2023-12-29T11:34:42;10.20;97.00
10030;DHT22;5055;52.054;8.524;2023-12-29T11:37:21;10.20;97.00
10030;DHT22;5055;52.054;8.524;2023-12-29T11:40:00;10.20;97.00
10030;DHT22;5055;52.054;8.524;2023-12-29T11:42:39;10.20;97.00
10030;DHT22;5055;52.054;8.524;2023-12-29T11:45:27;10.10;97.00
10030;DHT22;5055;52.054;8.524;2023-12-29T11:47:56;10.00;97.00
10030;DHT22;5055;52.054;8.524;2023-12-29T11:50:31;9.90;97.00
10030;DHT22;5055;52.054;8.524;2023-12-29T11:52:59;9.90;97.00
10030;DHT22;5055;52.054;8.524;2023-12-29T11:55:30;9.90;97.00
10030;DHT22;5055;52.054;8.524;2023-12-29T11:58:00;9.90;97.00
10030;DHT22;5055;52.054;8.524;2023-12-29T12:00:43;9.90;97.00
10030;DHT22;5055;52.054;8.524;2023-12-29T12:03:23;9.90;97.00
10030;DHT22;5055;52.054;8.524;2023-12-29T12:05:53;10.00;97.00
10030;DHT22;5055;52.054;8.524;2023-12-29T12:08:30;10.00;97.00
10030;DHT22;5055;52.054;8.524;2023-12-29T12:14:02;10.10;97.00
10030;DHT22;5055;52.054;8.524;2023-12-29T12:16:50;10.10;97.00
10030;DHT22;5055;52.054;8.524;2023-12-29T12:19:20;10.10;97.00
10030;DHT22;5055;52.054;8.524;2023-12-29T12:21:53;10.20;97.00
10030;DHT22;5055;52.054;8.524;2023-12-29T12:24:22;10.20;97.00
10030;DHT22;5055;52.054;8.524;2023-12-29T12:26:50;10.20;97.00
10030;DHT22;5055;52.054;8.524;2023-12-29T12:29:19;10.20;97.00
10030;DHT22;5055;52.054;8.524;2023-12-29T12:31:54;10.20;97.00
10030;DHT22;5055;52.054;8.524;2023-12-29T12:34:24;10.20;97.00
10030;DHT22;5055;52.054;8.524;2023-12-29T12:36:53;10.20;97.00
10030;DHT22;5055;52.054;8.524;2023-12-29T12:39:23;10.20;97.00
10030;DHT22;5055;52.054;8.524;2023-12-29T12:41:51;10.20;97.00
10030;DHT22;5055;52.054;8.524;2023-12-29T12:44:21;10.30;97.00
10030;DHT22;5055;52.054;8.524;2023-12-29T12:46:57;10.30;97.00
10030;DHT22;5055;52.054;8.524;2023-12-29T12:49:26;10.40;97.00
10030;DHT22;5055;52.054;8.524;2023-12-29T12:51:54;10.50;97.00
10030;DHT22;5055;52.054;8.524;2023-12-29T12:54:23;10.50;97.00
10030;DHT22;5055;52.054;8.524;2023-12-29T12:56:51;10.50;97.00
10030;DHT22;5055;52.054;8.524;2023-12-29T12:59:21;10.50;97.00
10030;DHT22;5055;52.054;8.524;2023-12-29T13:01:49;10.50;97.00
10030;DHT22;5055;52.054;8.524;2023-12-29T13:04:18;10.60;97.00
10030;DHT22;5055;52.054;8.524;2023-12-29T13:06:46;10.60;97.00
10030;DHT22;5055;52.054;8.524;2023-12-29T13:09:18;10.60;97.00
10030;DHT22;5055;52.054;8.524;2023-12-29T13:11:47;10.60;97.00
10030;DHT22;5055;52.054;8.524;2023-12-29T13:14:22;10.70;97.00
10030;DHT22;5055;52.054;8.524;2023-12-29T13:16:52;10.70;97.00
10030;DHT22;5055;52.054;8.524;2023-12-29T13:19:21;10.80;97.00
10030;DHT22;5055;52.054;8.524;2023-12-29T13:21:52;10.90;97.00
10030;DHT22;5055;52.054;8.524;2023-12-29T13:24:23;11.00;97.00
10030;DHT22;5055;52.054;8.524;2023-12-29T13:26:55;11.00;97.00
10030;DHT22;5055;52.054;8.524;2023-12-29T13:29:27;10.90;97.00
10030;DHT22;5055;52.054;8.524;2023-12-29T13:31:59;10.90;97.00
10030;DHT22;5055;52.054;8.524;2023-12-29T13:34:36;10.90;97.00
10030;DHT22;5055;52.054;8.524;2023-12-29T13:37:09;10.80;97.00
10030;DHT22;5055;52.054;8.524;2023-12-29T13:39:45;10.80;97.00
10030;DHT22;5055;52.054;8.524;2023-12-29T13:42:19;10.80;97.00
10030;DHT22;5055;52.054;8.524;2023-12-29T13:44:50;10.80;97.00
10030;DHT22;5055;52.054;8.524;2023-12-29T13:47:19;10.80;97.00
10030;DHT22;5055;52.054;8.524;2023-12-29T13:49:48;10.80;97.00
10030;DHT22;5055;52.054;8.524;2023-12-29T13:52:18;10.80;97.00
10030;DHT22;5055;52.054;8.524;2023-12-29T13:54:49;10.70;97.00
10030;DHT22;5055;52.054;8.524;2023-12-29T13:57:17;10.80;97.00
10030;DHT22;5055;52.054;8.524;2023-12-29T13:59:49;10.80;97.00
10030;DHT22;5055;52.054;8.524;2023-12-29T14:02:23;10.80;97.00
10030;DHT22;5055;52.054;8.524;2023-12-29T14:05:15;10.70;97.00
10030;DHT22;5055;52.054;8.524;2023-12-29T14:07:47;10.70;97.00
10030;DHT22;5055;52.054;8.524;2023-12-29T14:10:15;10.70;97.00
10030;DHT22;5055;52.054;8.524;2023-12-29T14:12:44;10.70;97.00
10030;DHT22;5055;52.054;8.524;2023-12-29T14:15:14;10.60;97.00
10030;DHT22;5055;52.054;8.524;2023-12-29T14:17:42;10.60;97.00
10030;DHT22;5055;52.054;8.524;2023-12-29T14:20:10;10.60;97.00
10030;DHT22;5055;52.054;8.524;2023-12-29T14:22:39;10.60;97.00
10030;DHT22;5055;52.054;8.524;2023-12-29T14:25:07;10.60;97.00
10030;DHT22;5055;52.054;8.524;2023-12-29T14:27:36;10.60;97.00
10030;DHT22;5055;52.054;8.524;2023-12-29T14:30:19;10.60;97.00
10030;DHT22;5055;52.054;8.524;2023-12-29T14:32:47;10.60;97.00
10030;DHT22;5055;52.054;8.524;2023-12-29T14:35:15;10.60;97.00
10030;DHT22;5055;52.054;8.524;2023-12-29T14:37:44;10.60;97.00
10030;DHT22;5055;52.054;8.524;2023-12-29T14:40:12;10.60;97.00
10030;DHT22;5055;52.054;8.524;2023-12-29T14:42:40;10.60;97.00
10030;DHT22;5055;52.054;8.524;2023-12-29T14:45:09;10.50;97.00
10030;DHT22;5055;52.054;8.524;2023-12-29T14:47:39;10.50;97.00
10030;DHT22;5055;52.054;8.524;2023-12-29T14:50:08;10.50;97.00
10030;DHT22;5055;52.054;8.524;2023-12-29T14:52:36;10.50;97.00
10030;DHT22;5055;52.054;8.524;2023-12-29T14:55:05;10.40;97.00
10030;DHT22;5055;52.054;8.524;2023-12-29T14:57:33;10.40;97.00
10030;DHT22;5055;52.054;8.524;2023-12-29T15:00:02;10.30;97.00
10030;DHT22;5055;52.054;8.524;2023-12-29T15:02:31;10.30;97.00
10030;DHT22;5055;52.054;8.524;2023-12-29T15:05:00;10.20;97.00
10030;DHT22;5055;52.054;8.524;2023-12-29T15:07:29;10.20;97.00
10030;DHT22;5055;52.054;8.524;2023-12-29T15:09:57;10.10;97.00
10030;DHT22;5055;52.054;8.524;2023-12-29T15:12:26;10.10;97.00
10030;DHT22;5055;52.054;8.524;2023-12-29T15:14:54;10.00;97.00
10030;DHT22;5055;52.054;8.524;2023-12-29T15:17:22;9.90;97.00
10030;DHT22;5055;52.054;8.524;2023-12-29T15:19:50;9.90;97.00
10030;DHT22;5055;52.054;8.524;2023-12-29T15:22:20;9.80;97.00
10030;DHT22;5055;52.054;8.524;2023-12-29T15:24:52;9.80;97.00
10030;DHT22;5055;52.054;8.524;2023-12-29T15:27:21;9.80;97.00
10030;DHT22;5055;52.054;8.524;2023-12-29T15:29:49;9.70;97.00
10030;DHT22;5055;52.054;8.524;2023-12-29T15:32:17;9.70;97.00
10030;DHT22;5055;52.054;8.524;2023-12-29T15:34:45;9.70;97.00
10030;DHT22;5055;52.054;8.524;2023-12-29T15:37:13;9.70;97.00
10030;DHT22;5055;52.054;8.524;2023-12-29T15:39:43;9.60;97.00
10030;DHT22;5055;52.054;8.524;2023-12-29T15:42:12;9.60;97.00
10030;DHT22;5055;52.054;8.524;2023-12-29T15:44:40;9.60;97.00
10030;DHT22;5055;52.054;8.524;2023-12-29T15:47:08;9.50;97.00
10030;DHT22;5055;52.054;8.524;2023-12-29T15:49:36;9.50;97.00
10030;DHT22;5055;52.054;8.524;2023-12-29T15:52:05;9.40;97.00
10030;DHT22;5055;52.054;8.524;2023-12-29T15:54:33;9.30;97.00
10030;DHT22;5055;52.054;8.524;2023-12-29T15:57:03;9.20;97.00
10030;DHT22;5055;52.054;8.524;2023-12-29T15:59:34;9.10;97.00
10030;DHT22;5055;52.054;8.524;2023-12-29T16:02:03;9.10;97.00
10030;DHT22;5055;52.054;8.524;2023-12-29T16:04:31;9.00;97.00
10030;DHT22;5055;52.054;8.524;2023-12-29T16:07:00;8.90;97.00
10030;DHT22;5055;52.054;8.524;2023-12-29T16:09:28;8.90;97.00
10030;DHT22;5055;52.054;8.524;2023-12-29T16:11:56;8.80;97.00